sensor_id;sensor_type;location;lat;lon;timestamp;temperature;humidity
4215;DHT22;2121;48.062;7.850;2022-10-16T00:00:36;14.00;99.90
4215;DHT22;2121;48.062;7.850;2022-10-16T00:03:04;14.00;99.90
4215;DHT22;2121;48.062;7.850;2022-10-16T00:05:30;14.00;99.90
4215;DHT22;2121;48.062;7.850;2022-10-16T00:07:56;14.10;99.90
4215;DHT22;2121;48.062;7.850;2022-10-16T00:10:22;14.10;99.90
4215;DHT22;2121;48.062;7.850;2022-10-16T00:12:48;14.20;99.90
4215;DHT22;2121;48.062;7.850;2022-10-16T00:15:14;14.20;99.90
4215;DHT22;2121;48.062;7.850;2022-10-16T00:17:40;14.20;99.90
4215;DHT22;2121;48.062;7.850;2022-10-16T00:20:06;14.30;99.90
4215;DHT22;2121;48.062;7.850;2022-10-16T00:22:33;14.30;99.90
4215;DHT22;2121;48.062;7.850;2022-10-16T00:24:58;14.30;99.90
4215;DHT22;2121;48.062;7.850;2022-10-16T00:27:24;14.20;99.90
4215;DHT22;2121;48.062;7.850;2022-10-16T00:29:51;14.30;99.90
4215;DHT22;2121;48.062;7.850;2022-10-16T00:32:18;14.30;99.90
4215;DHT22;2121;48.062;7.850;2022-10-16T00:34:45;14.30;99.90
4215;DHT22;2121;48.062;7.850;2022-10-16T00:37:12;14.40;99.90
4215;DHT22;2121;48.062;7.850;2022-10-16T00:39:38;14.30;99.90
4215;DHT22;2121;48.062;7.850;2022-10-16T00:42:04;14.30;99.90
4215;DHT22;2121;48.062;7.850;2022-10-16T00:44:52;14.30;99.90
4215;DHT22;2121;48.062;7.850;2022-10-16T00:49:58;14.20;99.90
4215;DHT22;2121;48.062;7.850;2022-10-16T00:52:26;14.10;99.90
4215;DHT22;2121;48.062;7.850;2022-10-16T00:54:53;14.00;99.90
4215;DHT22;2121;48.062;7.850;2022-10-16T00:57:20;14.10;99.90
4215;DHT22;2121;48.062;7.850;2022-10-16T00:59:46;14.20;99.90
4215;DHT22;2121;48.062;7.850;2022-10-16T01:02:13;14.20;99.90
4215;DHT22;2121;48.062;7.850;2022-10-16T01:04:46;14.20;99.90
4215;DHT22;2121;48.062;7.850;2022-10-16T01:10:40;14.30;99.90
4215;DHT22;2121;48.062;7.850;2022-10-16T01:13:41;14.20;99.90
4215;DHT22;2121;48.062;7.850;2022-10-16T01:16:34;14.20;99.90
4215;DHT22;2121;48.062;7.850;2022-10-16T01:19:09;14.20;99.90
4215;DHT22;2121;48.062;7.850;2022-10-16T01:21:43;14.10;99.90
4215;DHT22;2121;48.062;7.850;2022-10-16T01:24:33;14.10;99.90
4215;DHT22;2121;48.062;7.850;2022-10-16T01:32:42;13.90;99.90
4215;DHT22;2121;48.062;7.850;2022-10-16T01:35:18;13.90;99.90
4215;DHT22;2121;48.062;7.850;2022-10-16T01:37:55;13.90;99.90
4215;DHT22;2121;48.062;7.850;2022-10-16T01:40:27;13.90;99.90
4215;DHT22;2121;48.062;7.850;2022-10-16T01:43:04;13.90;99.90
4215;DHT22;2121;48.062;7.850;2022-10-16T01:45:33;13.80;99.90
4215;DHT22;2121;48.062;7.850;2022-10-16T01:48:01;13.80;99.90
4215;DHT22;2121;48.062;7.850;2022-10-16T01:50:33;13.80;99.90
4215;DHT22;2121;48.062;7.850;2022-10-16T01:53:02;13.80;99.90
4215;DHT22;2121;48.062;7.850;2022-10-16T01:55:32;13.80;99.90
4215;DHT22;2121;48.062;7.850;2022-10-16T01:58:01;13.80;99.90
4215;DHT22;2121;48.062;7.850;2022-10-16T02:00:28;13.90;99.90
4215;DHT22;2121;48.062;7.850;2022-10-16T02:02:55;13.90;99.90
4215;DHT22;2121;48.062;7.850;2022-10-16T02:05:30;13.90;99.90
4215;DHT22;2121;48.062;7.850;2022-10-16T02:07:58;13.80;99.90
4215;DHT22;2121;48.062;7.850;2022-10-16T02:10:25;13.70;99.90
4215;DHT22;2121;48.062;7.850;2022-10-16T02:12:59;13.80;99.90
4215;DHT22;2121;48.062;7.850;2022-10-16T02:15:28;13.80;99.90
4215;DHT22;2121;48.062;7.850;2022-10-16T02:17:54;13.70;99.90
4215;DHT22;2121;48.062;7.850;2022-10-16T02:20:26;13.70;99.90
4215;DHT22;2121;48.062;7.850;2022-10-16T02:22:54;13.70;99.90
4215;DHT22;2121;48.062;7.850;2022-10-16T02:25:22;13.60;99.90
4215;DHT22;2121;48.062;7.850;2022-10-16T02:30:37;13.70;99.90
4215;DHT22;2121;48.062;7.850;2022-10-16T02:33:09;13.70;99.90
4215;DHT22;2121;48.062;7.850;2022-10-16T02:35:36;13.70;99.90
4215;DHT22;2121;48.062;7.850;2022-10-16T02:38:04;13.70;99.90
4215;DHT22;2121;48.062;7.850;2022-10-16T02:40:31;13.60;99.90
4215;DHT22;2121;48.062;7.850;2022-10-16T02:42:56;13.60;99.90
4215;DHT22;2121;48.062;7.850;2022-10-16T02:45:23;13.60;99.90
4215;DHT22;2121;48.062;7.850;2022-10-16T02:47:49;13.60;99.90
4215;DHT22;2121;48.062;7.850;2022-10-16T02:50:15;13.70;99.90
4215;DHT22;2121;48.062;7.850;2022-10-16T02:52:41;13.70;99.90
4215;DHT22;2121;48.062;7.850;2022-10-16T02:55:07;13.70;99.90
4215;DHT22;2121;48.062;7.850;2022-10-16T02:57:33;13.70;99.90
4215;DHT22;2121;48.062;7.850;2022-10-16T02:59:59;13.80;99.90
4215;DHT22;2121;48.062;7.850;2022-10-16T03:02:24;13.70;99.90
4215;DHT22;2121;48.062;7.850;2022-10-16T03:04:51;13.70;99.90
4215;DHT22;2121;48.062;7.850;2022-10-16T03:07:16;13.60;99.90
4215;DHT22;2121;48.062;7.850;2022-10-16T03:09:42;13.70;99.90
4215;DHT22;2121;48.062;7.850;2022-10-16T03:12:08;13.80;99.90
4215;DHT22;2121;48.062;7.850;2022-10-16T03:14:33;13.80;99.90
4215;DHT22;2121;48.062;7.850;2022-10-16T03:16:59;13.80;99.90
4215;DHT22;2121;48.062;7.850;2022-10-16T03:19:25;13.80;99.90
4215;DHT22;2121;48.062;7.850;2022-10-16T03:21:50;13.90;99.90
4215;DHT22;2121;48.062;7.850;2022-10-16T03:24:16;13.80;99.90
4215;DHT22;2121;48.062;7.850;2022-10-16T03:26:42;13.80;99.90
4215;DHT22;2121;48.062;7.850;2022-10-16T03:29:08;13.80;99.90
4215;DHT22;2121;48.062;7.850;2022-10-16T03:31:33;13.80;99.90
4215;DHT22;2121;48.062;7.850;2022-10-16T03:33:59;13.80;99.90
4215;DHT22;2121;48.062;7.850;2022-10-16T03:36:25;13.70;99.90
4215;DHT22;2121;48.062;7.850;2022-10-16T03:38:50;13.70;99.90
4215;DHT22;2121;48.062;7.850;2022-10-16T03:41:16;13.70;99.90
4215;DHT22;2121;48.062;7.850;2022-10-16T03:43:42;13.70;99.90
4215;DHT22;2121;48.062;7.850;2022-10-16T03:46:08;13.70;99.90
4215;DHT22;2121;48.062;7.850;2022-10-16T03:48:33;13.70;99.90
4215;DHT22;2121;48.062;7.850;2022-10-16T03:50:59;13.70;99.90
4215;DHT22;2121;48.062;7.850;2022-10-16T03:53:25;13.60;99.90
4215;DHT22;2121;48.062;7.850;2022-10-16T03:55:51;13.70;99.90
4215;DHT22;2121;48.062;7.850;2022-10-16T03:58:17;13.60;99.90
4215;DHT22;2121;48.062;7.850;2022-10-16T04:00:43;13.70;99.90
4215;DHT22;2121;48.062;7.850;2022-10-16T04:03:10;13.70;99.90
4215;DHT22;2121;48.062;7.850;2022-10-16T04:05:37;13.70;99.90
4215;DHT22;2121;48.062;7.850;2022-10-16T04:08:04;13.60;99.90
4215;DHT22;2121;48.062;7.850;2022-10-16T04:10:30;13.60;99.90
4215;DHT22;2121;48.062;7.850;2022-10-16T04:12:56;13.60;99.90
4215;DHT22;2121;48.062;7.850;2022-10-16T04:15:25;13.60;99.90
4215;DHT22;2121;48.062;7.850;2022-10-16T04:17:52;13.60;99.90
4215;DHT22;2121;48.062;7.850;2022-10-16T04:20:18;13.70;99.90
4215;DHT22;2121;48.062;7.850;2022-10-16T04:22:45;13.70;99.90
4215;DHT22;2121;48.062;7.850;2022-10-16T04:25:10;13.70;99.90
4215;DHT22;2121;48.062;7.850;2022-10-16T04:27:37;13.70;99.90
4215;DHT22;2121;48.062;7.850;2022-10-16T04:30:04;13.80;99.90
4215;DHT22;2121;48.062;7.850;2022-10-16T04:32:30;13.70;99.90
4215;DHT22;2121;48.062;7.850;2022-10-16T04:34:56;13.80;99.90
4215;DHT22;2121;48.062;7.850;2022-10-16T04:37:26;13.80;99.90
4215;DHT22;2121;48.062;7.850;2022-10-16T04:39:52;13.80;99.90
4215;DHT22;2121;48.062;7.850;2022-10-16T04:42:18;13.80;99.90
4215;DHT22;2121;48.062;7.850;2022-10-16T04:44:44;13.80;99.90
4215;DHT22;2121;48.062;7.850;2022-10-16T04:47:10;13.80;99.90
4215;DHT22;2121;48.062;7.850;2022-10-16T04:49:36;13.90;99.90
4215;DHT22;2121;48.062;7.850;2022-10-16T04:52:02;13.90;99.90
4215;DHT22;2121;48.062;7.850;2022-10-16T04:54:28;13.90;99.90
4215;DHT22;2121;48.062;7.850;2022-10-16T04:56:54;13.80;99.90
4215;DHT22;2121;48.062;7.850;2022-10-16T04:59:20;13.70;99.90
4215;DHT22;2121;48.062;7.850;2022-10-16T05:01:47;13.70;99.90
4215;DHT22;2121;48.062;7.850;2022-10-16T05:04:14;13.70;99.90
4215;DHT22;2121;48.062;7.850;2022-10-16T05:06:41;13.70;99.90
4215;DHT22;2121;48.062;7.850;2022-10-16T05:09:07;13.70;99.90
4215;DHT22;2121;48.062;7.850;2022-10-16T05:11:34;13.70;99.90
4215;DHT22;2121;48.062;7.850;2022-10-16T05:14:00;13.80;99.90
4215;DHT22;2121;48.062;7.850;2022-10-16T05:16:26;13.80;99.90
4215;DHT22;2121;48.062;7.850;2022-10-16T05:18:52;13.90;99.90
4215;DHT22;2121;48.062;7.850;2022-10-16T05:21:19;13.90;99.90
4215;DHT22;2121;48.062;7.850;2022-10-16T05:23:45;14.00;99.90
4215;DHT22;2121;48.062;7.850;2022-10-16T05:26:10;14.00;99.90
4215;DHT22;2121;48.062;7.850;2022-10-16T05:28:36;14.00;99.90
4215;DHT22;2121;48.062;7.850;2022-10-16T05:31:09;14.00;99.90
4215;DHT22;2121;48.062;7.850;2022-10-16T05:33:35;14.00;99.90
4215;DHT22;2121;48.062;7.850;2022-10-16T05:36:05;13.90;99.90
4215;DHT22;2121;48.062;7.850;2022-10-16T05:38:36;13.90;99.90
4215;DHT22;2121;48.062;7.850;2022-10-16T05:41:03;13.90;99.90
4215;DHT22;2121;48.062;7.850;2022-10-16T05:43:30;13.80;99.90
4215;DHT22;2121;48.062;7.850;2022-10-16T05:45:57;13.80;99.90
4215;DHT22;2121;48.062;7.850;2022-10-16T05:48:24;13.90;99.90
4215;DHT22;2121;48.062;7.850;2022-10-16T05:51:01;13.90;99.90
4215;DHT22;2121;48.062;7.850;2022-10-16T05:53:30;13.80;99.90
4215;DHT22;2121;48.062;7.850;2022-10-16T05:55:58;13.90;99.90
4215;DHT22;2121;48.062;7.850;2022-10-16T05:58:25;13.90;99.90
4215;DHT22;2121;48.062;7.850;2022-10-16T06:01:05;13.90;99.90
4215;DHT22;2121;48.062;7.850;2022-10-16T06:03:33;13.90;99.90
4215;DHT22;2121;48.062;7.850;2022-10-16T06:05:59;14.00;99.90
4215;DHT22;2121;48.062;7.850;2022-10-16T06:08:32;14.00;99.90
4215;DHT22;2121;48.062;7.850;2022-10-16T06:11:03;14.00;99.90
4215;DHT22;2121;48.062;7.850;2022-10-16T06:13:30;14.00;99.90
4215;DHT22;2121;48.062;7.850;2022-10-16T06:16:00;14.00;99.90
4215;DHT22;2121;48.062;7.850;2022-10-16T06:18:27;14.10;99.90
4215;DHT22;2121;48.062;7.850;2022-10-16T06:20:54;14.20;99.90
4215;DHT22;2121;48.062;7.850;2022-10-16T06:23:20;14.20;99.90
4215;DHT22;2121;48.062;7.850;2022-10-16T06:25:46;14.20;99.90
4215;DHT22;2121;48.062;7.850;2022-10-16T06:28:13;14.20;99.90
4215;DHT22;2121;48.062;7.850;2022-10-16T06:30:39;14.20;99.90
4215;DHT22;2121;48.062;7.850;2022-10-16T06:33:05;14.20;99.90
4215;DHT22;2121;48.062;7.850;2022-10-16T06:35:30;14.20;99.90
4215;DHT22;2121;48.062;7.850;2022-10-16T06:37:57;14.20;99.90
4215;DHT22;2121;48.062;7.850;2022-10-16T06:40:23;14.30;99.90
4215;DHT22;2121;48.062;7.850;2022-10-16T06:42:49;14.20;99.90
4215;DHT22;2121;48.062;7.850;2022-10-16T06:45:17;14.10;99.90
4215;DHT22;2121;48.062;7.850;2022-10-16T06:47:43;14.20;99.90
4215;DHT22;2121;48.062;7.850;2022-10-16T06:50:08;14.20;99.90
4215;DHT22;2121;48.062;7.850;2022-10-16T06:52:34;14.30;99.90
4215;DHT22;2121;48.062;7.850;2022-10-16T06:55:00;14.30;99.90
4215;DHT22;2121;48.062;7.850;2022-10-16T06:57:26;14.40;99.90
4215;DHT22;2121;48.062;7.850;2022-10-16T06:59:52;14.50;99.90
4215;DHT22;2121;48.062;7.850;2022-10-16T07:02:18;14.60;99.90
4215;DHT22;2121;48.062;7.850;2022-10-16T07:04:43;14.60;99.90
4215;DHT22;2121;48.062;7.850;2022-10-16T07:07:09;14.70;99.90
4215;DHT22;2121;48.062;7.850;2022-10-16T07:09:35;14.70;99.90
4215;DHT22;2121;48.062;7.850;2022-10-16T07:12:01;14.60;99.90
4215;DHT22;2121;48.062;7.850;2022-10-16T07:14:27;14.50;99.90
4215;DHT22;2121;48.062;7.850;2022-10-16T07:16:53;14.60;99.90
4215;DHT22;2121;48.062;7.850;2022-10-16T07:19:19;14.80;99.90
4215;DHT22;2121;48.062;7.850;2022-10-16T07:21:44;15.00;99.90
4215;DHT22;2121;48.062;7.850;2022-10-16T07:24:16;15.00;99.90
4215;DHT22;2121;48.062;7.850;2022-10-16T07:26:43;15.10;99.90
4215;DHT22;2121;48.062;7.850;2022-10-16T07:29:14;15.20;99.90
4215;DHT22;2121;48.062;7.850;2022-10-16T07:31:42;15.40;99.90
4215;DHT22;2121;48.062;7.850;2022-10-16T07:34:10;15.40;99.90
4215;DHT22;2121;48.062;7.850;2022-10-16T07:36:37;15.50;99.90
4215;DHT22;2121;48.062;7.850;2022-10-16T07:39:03;15.70;99.90
4215;DHT22;2121;48.062;7.850;2022-10-16T07:41:29;15.80;99.90
4215;DHT22;2121;48.062;7.850;2022-10-16T07:43:55;15.90;99.90
4215;DHT22;2121;48.062;7.850;2022-10-16T07:46:26;16.00;99.90
4215;DHT22;2121;48.062;7.850;2022-10-16T07:48:52;16.10;99.90
4215;DHT22;2121;48.062;7.850;2022-10-16T07:51:20;16.10;99.90
4215;DHT22;2121;48.062;7.850;2022-10-16T07:53:49;16.20;99.90
4215;DHT22;2121;48.062;7.850;2022-10-16T07:56:17;16.20;99.90
4215;DHT22;2121;48.062;7.850;2022-10-16T07:58:43;16.40;99.90
4215;DHT22;2121;48.062;7.850;2022-10-16T08:01:11;16.40;99.90
4215;DHT22;2121;48.062;7.850;2022-10-16T08:03:42;16.60;99.90
4215;DHT22;2121;48.062;7.850;2022-10-16T08:06:11;16.70;99.90
4215;DHT22;2121;48.062;7.850;2022-10-16T08:08:38;16.90;99.90
4215;DHT22;2121;48.062;7.850;2022-10-16T08:11:03;16.90;99.90
4215;DHT22;2121;48.062;7.850;2022-10-16T08:13:30;17.00;99.90
4215;DHT22;2121;48.062;7.850;2022-10-16T08:15:56;17.20;99.90
4215;DHT22;2121;48.062;7.850;2022-10-16T08:18:22;17.40;99.90
4215;DHT22;2121;48.062;7.850;2022-10-16T08:20:56;17.30;99.90
4215;DHT22;2121;48.062;7.850;2022-10-16T08:23:23;17.30;99.90
4215;DHT22;2121;48.062;7.850;2022-10-16T08:25:52;17.50;99.90
4215;DHT22;2121;48.062;7.850;2022-10-16T08:28:18;17.40;99.90
4215;DHT22;2121;48.062;7.850;2022-10-16T08:30:44;17.30;99.90
4215;DHT22;2121;48.062;7.850;2022-10-16T08:33:10;17.40;99.90
4215;DHT22;2121;48.062;7.850;2022-10-16T08:35:36;17.30;99.90
4215;DHT22;2121;48.062;7.850;2022-10-16T08:38:05;17.40;99.90
4215;DHT22;2121;48.062;7.850;2022-10-16T08:40:33;17.50;99.90
4215;DHT22;2121;48.062;7.850;2022-10-16T08:48:49;18.10;99.90
4215;DHT22;2121;48.062;7.850;2022-10-16T08:51:23;18.30;99.90
4215;DHT22;2121;48.062;7.850;2022-10-16T08:53:56;18.50;99.90
4215;DHT22;2121;48.062;7.850;2022-10-16T08:56:24;18.20;99.90
4215;DHT22;2121;48.062;7.850;2022-10-16T08:58:51;18.10;99.90
4215;DHT22;2121;48.062;7.850;2022-10-16T09:01:20;18.10;99.90
4215;DHT22;2121;48.062;7.850;2022-10-16T09:14:23;18.80;99.90
4215;DHT22;2121;48.062;7.850;2022-10-16T09:23:27;19.50;99.90
4215;DHT22;2121;48.062;7.850;2022-10-16T09:25:58;19.40;99.90
4215;DHT22;2121;48.062;7.850;2022-10-16T09:28:24;19.80;99.90
4215;DHT22;2121;48.062;7.850;2022-10-16T09:30:51;20.30;99.90
4215;DHT22;2121;48.062;7.850;2022-10-16T09:33:19;20.90;99.90
4215;DHT22;2121;48.062;7.850;2022-10-16T09:35:51;21.70;99.90
4215;DHT22;2121;48.062;7.850;2022-10-16T09:38:33;22.20;99.90
4215;DHT22;2121;48.062;7.850;2022-10-16T09:44:00;21.90;99.90
4215;DHT22;2121;48.062;7.850;2022-10-16T09:46:34;21.30;99.90
4215;DHT22;2121;48.062;7.850;2022-10-16T09:49:22;20.70;99.90
4215;DHT22;2121;48.062;7.850;2022-10-16T09:51:50;20.40;99.90
4215;DHT22;2121;48.062;7.850;2022-10-16T09:54:20;20.40;99.90
4215;DHT22;2121;48.062;7.850;2022-10-16T09:56:46;20.20;99.90
4215;DHT22;2121;48.062;7.850;2022-10-16T09:59:21;20.20;99.90
4215;DHT22;2121;48.062;7.850;2022-10-16T10:01:55;20.30;99.90
4215;DHT22;2121;48.062;7.850;2022-10-16T10:04:25;20.60;99.90
4215;DHT22;2121;48.062;7.850;2022-10-16T10:06:55;20.60;99.90
4215;DHT22;2121;48.062;7.850;2022-10-16T10:09:30;21.00;99.90
4215;DHT22;2121;48.062;7.850;2022-10-16T10:12:00;21.50;99.90
4215;DHT22;2121;48.062;7.850;2022-10-16T10:37:28;24.10;99.90
4215;DHT22;2121;48.062;7.850;2022-10-16T10:46:41;24.90;99.90
4215;DHT22;2121;48.062;7.850;2022-10-16T10:52:10;24.90;99.90
4215;DHT22;2121;48.062;7.850;2022-10-16T10:57:38;24.80;99.90
4215;DHT22;2121;48.062;7.850;2022-10-16T11:00:28;24.80;99.90
4215;DHT22;2121;48.062;7.850;2022-10-16T11:05:47;25.10;99.90
4215;DHT22;2121;48.062;7.850;2022-10-16T11:08:26;24.60;99.90
4215;DHT22;2121;48.062;7.850;2022-10-16T11:11:29;23.90;99.90
4215;DHT22;2121;48.062;7.850;2022-10-16T11:16:34;23.50;99.90
4215;DHT22;2121;48.062;7.850;2022-10-16T11:19:19;23.30;99.90
4215;DHT22;2121;48.062;7.850;2022-10-16T11:24:55;23.70;99.90
4215;DHT22;2121;48.062;7.850;2022-10-16T11:27:39;23.80;99.90
4215;DHT22;2121;48.062;7.850;2022-10-16T11:30:26;23.60;99.90
4215;DHT22;2121;48.062;7.850;2022-10-16T11:35:53;23.70;99.90
4215;DHT22;2121;48.062;7.850;2022-10-16T11:38:30;23.70;99.90
4215;DHT22;2121;48.062;7.850;2022-10-16T11:41:00;23.60;99.90
4215;DHT22;2121;48.062;7.850;2022-10-16T11:43:34;23.60;99.90
4215;DHT22;2121;48.062;7.850;2022-10-16T11:46:17;24.00;99.90
4215;DHT22;2121;48.062;7.850;2022-10-16T11:49:15;24.80;99.90
4215;DHT22;2121;48.062;7.850;2022-10-16T11:52:12;24.90;99.90
4215;DHT22;2121;48.062;7.850;2022-10-16T11:57:32;26.20;99.90
4215;DHT22;2121;48.062;7.850;2022-10-16T12:03:22;27.90;96.80
4215;DHT22;2121;48.062;7.850;2022-10-16T12:06:51;28.40;95.80
4215;DHT22;2121;48.062;7.850;2022-10-16T12:09:01;28.90;96.10
4215;DHT22;2121;48.062;7.850;2022-10-16T12:11:36;29.30;95.80
4215;DHT22;2121;48.062;7.850;2022-10-16T12:14:19;29.40;95.20
4215;DHT22;2121;48.062;7.850;2022-10-16T12:17:00;29.50;93.90
4215;DHT22;2121;48.062;7.850;2022-10-16T12:19:29;29.80;94.60
4215;DHT22;2121;48.062;7.850;2022-10-16T12:22:00;30.10;94.40
4215;DHT22;2121;48.062;7.850;2022-10-16T12:24:37;29.90;93.00
4215;DHT22;2121;48.062;7.850;2022-10-16T12:30:06;29.40;93.50
4215;DHT22;2121;48.062;7.850;2022-10-16T12:32:36;29.10;94.50
4215;DHT22;2121;48.062;7.850;2022-10-16T12:35:16;29.00;94.30
4215;DHT22;2121;48.062;7.850;2022-10-16T12:37:44;29.00;94.20
4215;DHT22;2121;48.062;7.850;2022-10-16T12:40:23;28.80;94.40
4215;DHT22;2121;48.062;7.850;2022-10-16T12:42:52;28.80;94.50
4215;DHT22;2121;48.062;7.850;2022-10-16T12:47:56;28.10;94.30
4215;DHT22;2121;48.062;7.850;2022-10-16T12:52:52;27.50;94.70
4215;DHT22;2121;48.062;7.850;2022-10-16T12:55:20;27.50;94.00
4215;DHT22;2121;48.062;7.850;2022-10-16T12:58:12;27.60;94.90
4215;DHT22;2121;48.062;7.850;2022-10-16T13:00:58;27.80;94.20
4215;DHT22;2121;48.062;7.850;2022-10-16T13:15:16;28.10;92.40
4215;DHT22;2121;48.062;7.850;2022-10-16T13:23:34;28.30;93.30
4215;DHT22;2121;48.062;7.850;2022-10-16T13:28:49;28.50;92.90
4215;DHT22;2121;48.062;7.850;2022-10-16T13:31:20;28.30;92.40
4215;DHT22;2121;48.062;7.850;2022-10-16T13:33:51;28.20;92.70
4215;DHT22;2121;48.062;7.850;2022-10-16T13:36:22;28.20;93.00
4215;DHT22;2121;48.062;7.850;2022-10-16T13:41:40;28.10;91.90
4215;DHT22;2121;48.062;7.850;2022-10-16T13:44:19;28.30;92.60
4215;DHT22;2121;48.062;7.850;2022-10-16T13:46:46;28.10;93.10
4215;DHT22;2121;48.062;7.850;2022-10-16T13:49:16;28.30;93.10
4215;DHT22;2121;48.062;7.850;2022-10-16T13:51:54;28.40;92.60
4215;DHT22;2121;48.062;7.850;2022-10-16T13:54:21;28.70;92.00
4215;DHT22;2121;48.062;7.850;2022-10-16T13:56:48;28.80;92.40
4215;DHT22;2121;48.062;7.850;2022-10-16T13:59:32;28.60;91.80
4215;DHT22;2121;48.062;7.850;2022-10-16T14:02:04;28.60;91.70
4215;DHT22;2121;48.062;7.850;2022-10-16T14:04:38;28.70;91.60
4215;DHT22;2121;48.062;7.850;2022-10-16T14:07:04;28.70;91.60
4215;DHT22;2121;48.062;7.850;2022-10-16T14:09:30;28.70;90.80
4215;DHT22;2121;48.062;7.850;2022-10-16T14:12:02;29.00;90.90
4215;DHT22;2121;48.062;7.850;2022-10-16T14:14:40;29.10;91.70
4215;DHT22;2121;48.062;7.850;2022-10-16T14:17:18;29.10;91.60
4215;DHT22;2121;48.062;7.850;2022-10-16T14:19:49;28.90;90.20
4215;DHT22;2121;48.062;7.850;2022-10-16T14:22:37;28.80;90.90
4215;DHT22;2121;48.062;7.850;2022-10-16T14:28:18;29.40;90.40
4215;DHT22;2121;48.062;7.850;2022-10-16T14:33:57;29.90;90.70
4215;DHT22;2121;48.062;7.850;2022-10-16T14:36:24;30.10;90.70
4215;DHT22;2121;48.062;7.850;2022-10-16T14:39:03;30.10;90.30
4215;DHT22;2121;48.062;7.850;2022-10-16T14:41:32;30.00;91.20
4215;DHT22;2121;48.062;7.850;2022-10-16T14:44:10;29.90;90.90
4215;DHT22;2121;48.062;7.850;2022-10-16T14:46:39;29.70;91.50
4215;DHT22;2121;48.062;7.850;2022-10-16T14:51:39;29.60;91.50
4215;DHT22;2121;48.062;7.850;2022-10-16T14:54:08;29.80;92.40
4215;DHT22;2121;48.062;7.850;2022-10-16T14:56:52;29.80;91.90
4215;DHT22;2121;48.062;7.850;2022-10-16T14:59:30;29.70;90.90
4215;DHT22;2121;48.062;7.850;2022-10-16T15:01:59;29.60;90.70
4215;DHT22;2121;48.062;7.850;2022-10-16T15:04:27;29.60;90.90
4215;DHT22;2121;48.062;7.850;2022-10-16T15:06:52;29.80;88.70
4215;DHT22;2121;48.062;7.850;2022-10-16T15:09:18;29.60;91.40
4215;DHT22;2121;48.062;7.850;2022-10-16T15:11:44;30.00;88.90
4215;DHT22;2121;48.062;7.850;2022-10-16T15:14:13;31.70;89.70
4215;DHT22;2121;48.062;7.850;2022-10-16T15:16:39;33.90;84.80
4215;DHT22;2121;48.062;7.850;2022-10-16T15:19:04;33.60;80.90
4215;DHT22;2121;48.062;7.850;2022-10-16T15:21:32;34.20;83.30
4215;DHT22;2121;48.062;7.850;2022-10-16T15:23:59;36.00;79.00
4215;DHT22;2121;48.062;7.850;2022-10-16T15:26:27;37.00;78.80
4215;DHT22;2121;48.062;7.850;2022-10-16T15:28:53;36.10;75.30
4215;DHT22;2121;48.062;7.850;2022-10-16T15:31:20;36.00;79.10
4215;DHT22;2121;48.062;7.850;2022-10-16T15:33:50;36.60;78.60
4215;DHT22;2121;48.062;7.850;2022-10-16T15:36:28;35.70;78.70
4215;DHT22;2121;48.062;7.850;2022-10-16T15:39:08;34.60;80.90
4215;DHT22;2121;48.062;7.850;2022-10-16T15:41:37;35.10;81.60
4215;DHT22;2121;48.062;7.850;2022-10-16T15:44:03;35.90;80.40
4215;DHT22;2121;48.062;7.850;2022-10-16T15:46:29;37.60;78.80
4215;DHT22;2121;48.062;7.850;2022-10-16T15:48:57;38.60;78.10
4215;DHT22;2121;48.062;7.850;2022-10-16T15:51:24;37.90;78.30
4215;DHT22;2121;48.062;7.850;2022-10-16T15:53:52;37.10;79.90
4215;DHT22;2121;48.062;7.850;2022-10-16T15:56:19;36.10;82.30
4215;DHT22;2121;48.062;7.850;2022-10-16T15:58:45;35.20;83.80
4215;DHT22;2121;48.062;7.850;2022-10-16T16:01:11;34.10;86.20
4215;DHT22;2121;48.062;7.850;2022-10-16T16:03:38;33.00;87.90
4215;DHT22;2121;48.062;7.850;2022-10-16T16:06:08;31.80;89.90
4215;DHT22;2121;48.062;7.850;2022-10-16T16:08:35;31.00;90.70
4215;DHT22;2121;48.062;7.850;2022-10-16T16:11:04;30.80;90.80
4215;DHT22;2121;48.062;7.850;2022-10-16T16:13:31;29.90;91.30
4215;DHT22;2121;48.062;7.850;2022-10-16T16:15:57;28.30;92.60
4215;DHT22;2121;48.062;7.850;2022-10-16T16:18:23;27.10;93.80
4215;DHT22;2121;48.062;7.850;2022-10-16T16:20:50;25.80;94.80
4215;DHT22;2121;48.062;7.850;2022-10-16T16:23:16;24.70;95.90
4215;DHT22;2121;48.062;7.850;2022-10-16T16:25:42;24.00;97.00
4215;DHT22;2121;48.062;7.850;2022-10-16T16:28:09;23.40;98.00
4215;DHT22;2121;48.062;7.850;2022-10-16T16:30:36;22.90;98.90
4215;DHT22;2121;48.062;7.850;2022-10-16T16:33:02;22.40;99.70
4215;DHT22;2121;48.062;7.850;2022-10-16T16:35:28;21.90;99.90
4215;DHT22;2121;48.062;7.850;2022-10-16T16:37:54;21.50;99.90
4215;DHT22;2121;48.062;7.850;2022-10-16T16:40:20;21.20;99.90
4215;DHT22;2121;48.062;7.850;2022-10-16T16:42:50;20.90;99.90
4215;DHT22;2121;48.062;7.850;2022-10-16T16:45:16;20.70;99.90
4215;DHT22;2121;48.062;7.850;2022-10-16T16:47:41;20.40;99.90
4215;DHT22;2121;48.062;7.850;2022-10-16T16:50:07;20.10;99.90
4215;DHT22;2121;48.062;7.850;2022-10-16T16:52:34;20.00;99.90
4215;DHT22;2121;48.062;7.850;2022-10-16T16:55:00;19.80;99.90
4215;DHT22;2121;48.062;7.850;2022-10-16T16:57:27;19.60;99.90
4215;DHT22;2121;48.062;7.850;2022-10-16T16:59:52;19.50;99.90
4215;DHT22;2121;48.062;7.850;2022-10-16T17:02:18;19.30;99.90
4215;DHT22;2121;48.062;7.850;2022-10-16T17:04:44;19.20;99.90
4215;DHT22;2121;48.062;7.850;2022-10-16T17:07:10;19.00;99.90
4215;DHT22;2121;48.062;7.850;2022-10-16T17:09:35;18.90;99.90
4215;DHT22;2121;48.062;7.850;2022-10-16T17:12:01;18.80;99.90
4215;DHT22;2121;48.062;7.850;2022-10-16T17:14:27;18.80;99.90
4215;DHT22;2121;48.062;7.850;2022-10-16T17:16:53;18.70;99.90
4215;DHT22;2121;48.062;7.850;2022-10-16T17:19:19;18.60;99.90
4215;DHT22;2121;48.062;7.850;2022-10-16T17:21:48;18.50;99.90
4215;DHT22;2121;48.062;7.850;2022-10-16T17:24:14;18.40;99.90
4215;DHT22;2121;48.062;7.850;2022-10-16T17:26:40;18.20;99.90
4215;DHT22;2121;48.062;7.850;2022-10-16T17:29:12;18.20;99.90
4215;DHT22;2121;48.062;7.850;2022-10-16T17:31:38;18.10;99.90
4215;DHT22;2121;48.062;7.850;2022-10-16T17:34:06;18.10;99.90
4215;DHT22;2121;48.062;7.850;2022-10-16T17:36:35;18.00;99.90
4215;DHT22;2121;48.062;7.850;2022-10-16T17:39:05;17.90;99.90
4215;DHT22;2121;48.062;7.850;2022-10-16T17:41:33;17.80;99.90
4215;DHT22;2121;48.062;7.850;2022-10-16T17:43:59;17.70;99.90
4215;DHT22;2121;48.062;7.850;2022-10-16T17:46:25;17.60;99.90
4215;DHT22;2121;48.062;7.850;2022-10-16T17:48:52;17.40;99.90
4215;DHT22;2121;48.062;7.850;2022-10-16T17:51:21;17.30;99.90
4215;DHT22;2121;48.062;7.850;2022-10-16T17:53:54;17.10;99.90
4215;DHT22;2121;48.062;7.850;2022-10-16T17:56:22;17.00;99.90
4215;DHT22;2121;48.062;7.850;2022-10-16T17:58:53;16.90;99.90
4215;DHT22;2121;48.062;7.850;2022-10-16T18:01:25;16.90;99.90
4215;DHT22;2121;48.062;7.850;2022-10-16T18:03:58;16.80;99.90
4215;DHT22;2121;48.062;7.850;2022-10-16T18:06:30;16.80;99.90
4215;DHT22;2121;48.062;7.850;2022-10-16T18:08:57;16.80;99.90
4215;DHT22;2121;48.062;7.850;2022-10-16T18:11:23;16.80;99.90
4215;DHT22;2121;48.062;7.850;2022-10-16T18:13:54;16.70;99.90
4215;DHT22;2121;48.062;7.850;2022-10-16T18:16:21;16.70;99.90
4215;DHT22;2121;48.062;7.850;2022-10-16T18:18:48;16.60;99.90
4215;DHT22;2121;48.062;7.850;2022-10-16T18:21:16;16.60;99.90
4215;DHT22;2121;48.062;7.850;2022-10-16T18:23:43;16.50;99.90
4215;DHT22;2121;48.062;7.850;2022-10-16T18:26:11;16.40;99.90
4215;DHT22;2121;48.062;7.850;2022-10-16T18:28:37;16.40;99.90